createdAt,value
2019-03-16T00:00:33.202Z,63.58
2019-03-16T00:03:03.506Z,61.58
2019-03-16T00:05:33.908Z,60.95
2019-03-16T00:08:04.186Z,61.65
2019-03-16T00:10:34.774Z,60.80
2019-03-16T00:13:07.796Z,61.45
2019-03-16T00:15:38.132Z,57.65
2019-03-16T00:18:08.460Z,60.65
2019-03-16T00:20:39.777Z,58.78
2019-03-16T00:23:10.117Z,58.85
2019-03-16T00:25:41.501Z,57.17
2019-03-16T00:28:13.769Z,57.35
2019-03-16T00:30:44.258Z,55.48
2019-03-16T00:33:17.253Z,57.05
2019-03-16T00:35:47.562Z,56.90
2019-03-16T00:38:23.241Z,55.05
2019-03-16T00:40:54.852Z,52.90
2019-03-16T00:43:25.189Z,54.53
2019-03-16T00:45:57.747Z,56.28
2019-03-16T00:48:28.077Z,52.38
2019-03-16T00:50:58.365Z,53.00
2019-03-16T00:53:28.641Z,52.85
2019-03-16T00:55:58.980Z,52.20
2019-03-16T00:58:30.283Z,53.58
2019-03-16T01:01:00.551Z,50.73
2019-03-16T01:03:31.926Z,50.63
2019-03-16T01:06:02.287Z,50.60
2019-03-16T01:08:33.009Z,49.65
2019-03-16T01:11:04.303Z,49.80
2019-03-16T01:13:34.537Z,50.98
2019-03-16T01:16:04.817Z,50.40
2019-03-16T01:18:35.433Z,49.40
2019-03-16T01:21:09.541Z,47.15
2019-03-16T01:23:39.853Z,45.52
2019-03-16T01:26:10.112Z,46.33
2019-03-16T01:28:41.515Z,44.67
2019-03-16T01:31:11.780Z,45.12
2019-03-16T01:33:43.334Z,45.73
2019-03-16T01:36:16.859Z,44.27
2019-03-16T01:38:47.092Z,45.30
2019-03-16T01:41:17.449Z,43.30
2019-03-16T01:43:47.685Z,44.60
2019-03-16T01:46:18.144Z,43.85
2019-03-16T01:48:48.471Z,43.50
2019-03-16T01:51:18.852Z,41.77
2019-03-16T01:53:49.166Z,41.33
2019-03-16T01:56:20.571Z,41.33
2019-03-16T01:58:50.869Z,41.45
2019-03-16T02:01:21.130Z,42.67
2019-03-16T02:03:51.377Z,43.23
2019-03-16T02:06:21.700Z,41.37
2019-03-16T02:08:51.983Z,40.40
2019-03-16T02:11:22.230Z,41.18
2019-03-16T02:13:52.486Z,41.00
2019-03-16T02:16:25.582Z,39.75
2019-03-16T02:18:55.910Z,40.33
2019-03-16T02:21:26.123Z,39.70
2019-03-16T02:23:56.463Z,38.95
2019-03-16T02:26:34.344Z,38.38
2019-03-16T02:29:06.412Z,39.95
2019-03-16T02:31:36.734Z,38.20
2019-03-16T02:34:07.032Z,38.65
2019-03-16T02:36:37.660Z,38.60
2019-03-16T02:39:08.075Z,38.20
2019-03-16T02:41:38.366Z,37.45
2019-03-16T02:44:11.420Z,38.15
2019-03-16T02:46:40.846Z,37.40
2019-03-16T02:49:11.128Z,35.70
2019-03-16T02:51:41.456Z,36.70
2019-03-16T02:54:11.858Z,34.80
2019-03-16T02:56:42.121Z,35.33
2019-03-16T02:59:12.360Z,35.13
2019-03-16T03:01:42.755Z,34.98
2019-03-16T03:04:13.059Z,35.50
2019-03-16T03:06:43.430Z,35.75
2019-03-16T03:09:13.767Z,34.90
2019-03-16T03:11:44.349Z,35.80
2019-03-16T03:14:14.644Z,35.13
2019-03-16T03:16:48.017Z,34.27
2019-03-16T03:19:18.353Z,32.80
2019-03-16T03:21:48.641Z,33.00
2019-03-16T03:24:19.005Z,34.70
2019-03-16T03:26:49.286Z,33.58
2019-03-16T03:29:19.731Z,33.18
2019-03-16T03:31:50.094Z,32.38
2019-03-16T03:34:20.340Z,33.50
2019-03-16T03:36:50.651Z,33.60
2019-03-16T03:39:21.006Z,31.75
2019-03-16T03:41:51.567Z,32.85
2019-03-16T03:44:21.918Z,31.17
2019-03-16T03:46:52.161Z,31.93
2019-03-16T03:49:22.508Z,30.52
2019-03-16T03:51:55.458Z,31.70
2019-03-16T03:54:25.827Z,28.00
2019-03-16T03:56:56.174Z,29.85
2019-03-16T03:59:26.465Z,28.10
2019-03-16T04:01:56.802Z,27.45
2019-03-16T04:04:28.042Z,28.65
2019-03-16T04:06:58.337Z,30.57
2019-03-16T04:09:28.671Z,36.10
2019-03-16T04:11:59.990Z,59.70
2019-03-16T04:14:31.534Z,59.15
2019-03-16T04:17:01.955Z,60.90
2019-03-16T04:19:32.334Z,54.08
2019-03-16T04:22:02.842Z,54.93
2019-03-16T04:24:34.351Z,53.15
2019-03-16T04:27:15.894Z,52.55
2019-03-16T04:29:37.747Z,55.10
2019-03-16T04:32:08.027Z,54.03
2019-03-16T04:34:38.350Z,52.08
2019-03-16T04:37:08.651Z,52.90
2019-03-16T04:39:39.012Z,53.83
2019-03-16T04:42:09.216Z,52.03
2019-03-16T04:44:39.588Z,52.27
2019-03-16T04:47:11.450Z,50.67
2019-03-16T04:49:41.719Z,50.33
2019-03-16T04:52:12.239Z,50.58
2019-03-16T04:54:42.630Z,49.95
2019-03-16T04:57:12.877Z,49.98
2019-03-16T04:59:43.170Z,49.77
2019-03-16T05:02:13.377Z,51.60
2019-03-16T05:04:45.118Z,48.45
2019-03-16T05:07:13.768Z,48.63
2019-03-16T05:09:42.341Z,49.03
2019-03-16T05:12:11.005Z,47.62
2019-03-16T05:14:43.161Z,49.85
2019-03-16T05:17:13.439Z,49.03
2019-03-16T05:19:43.798Z,47.80
2019-03-16T05:22:14.062Z,47.98
2019-03-16T05:24:44.385Z,48.63
2019-03-16T05:27:14.671Z,48.40
2019-03-16T05:29:44.994Z,48.85
2019-03-16T05:32:15.270Z,46.95
2019-03-16T05:34:55.842Z,52.20
2019-03-16T05:37:17.593Z,48.42
2019-03-16T05:39:47.926Z,53.38
2019-03-16T05:42:18.238Z,50.48
2019-03-16T05:44:48.553Z,50.15
2019-03-16T05:47:18.918Z,50.10
2019-03-16T05:49:49.312Z,54.03
2019-03-16T05:52:19.533Z,57.03
2019-03-16T05:54:50.443Z,45.55
2019-03-16T05:57:20.867Z,43.08
2019-03-16T05:59:51.172Z,39.98
2019-03-16T06:02:21.584Z,33.40
2019-03-16T06:04:51.834Z,32.73
2019-03-16T06:07:22.155Z,31.93
2019-03-16T06:09:52.476Z,33.78
2019-03-16T06:12:22.726Z,35.10
2019-03-16T06:14:54.661Z,37.05
2019-03-16T06:17:25.116Z,33.83
2019-03-16T06:19:55.357Z,34.03
2019-03-16T06:22:25.756Z,35.05
2019-03-16T06:24:57.998Z,38.90
2019-03-16T06:27:28.587Z,36.58
2019-03-16T06:30:01.809Z,42.13
2019-03-16T06:32:33.142Z,41.37
2019-03-16T06:35:03.559Z,39.65
2019-03-16T06:37:36.841Z,41.37
2019-03-16T06:40:07.396Z,44.00
2019-03-16T06:42:37.703Z,42.20
2019-03-16T06:45:07.959Z,44.40
2019-03-16T06:47:39.308Z,43.92
2019-03-16T06:50:10.793Z,43.20
2019-03-16T06:52:41.077Z,45.15
2019-03-16T06:55:12.863Z,46.05
2019-03-16T06:57:43.126Z,46.42
2019-03-16T07:00:13.414Z,46.20
2019-03-16T07:02:43.701Z,46.65
2019-03-16T07:05:14.180Z,47.17
2019-03-16T07:07:44.543Z,46.50
2019-03-16T07:10:14.914Z,45.92
2019-03-16T07:12:45.186Z,45.95
2019-03-16T07:15:15.499Z,46.23
2019-03-16T07:17:45.905Z,46.45
2019-03-16T07:20:16.243Z,46.92
2019-03-16T07:22:46.606Z,45.08
2019-03-16T07:25:16.943Z,45.90
2019-03-16T07:27:47.268Z,46.58
2019-03-16T07:30:17.620Z,46.42
2019-03-16T07:32:47.949Z,45.52
2019-03-16T07:35:18.274Z,44.27
2019-03-16T07:37:48.631Z,44.77
2019-03-16T07:40:18.974Z,45.83
2019-03-16T07:42:49.367Z,42.88
2019-03-16T07:45:19.633Z,44.83
2019-03-16T07:47:49.903Z,42.60
2019-03-16T07:50:20.257Z,44.50
2019-03-16T07:52:50.643Z,44.48
2019-03-16T07:55:21.338Z,43.80
2019-03-16T07:57:51.605Z,44.03
2019-03-16T08:00:21.927Z,43.10
2019-03-16T08:02:52.325Z,43.70
2019-03-16T08:05:23.730Z,44.18
2019-03-16T08:07:54.139Z,43.68
2019-03-16T08:10:24.456Z,43.42
2019-03-16T08:12:54.786Z,42.73
2019-03-16T08:15:28.089Z,41.60
2019-03-16T08:17:58.274Z,43.83
2019-03-16T08:20:31.278Z,41.45
2019-03-16T08:23:01.796Z,43.05
2019-03-16T08:25:32.421Z,41.30
2019-03-16T08:28:02.790Z,42.13
2019-03-16T08:30:34.242Z,42.53
2019-03-16T08:33:06.867Z,38.92
2019-03-16T08:35:37.178Z,41.77
2019-03-16T08:38:08.581Z,40.33
2019-03-16T08:40:40.010Z,39.35
2019-03-16T08:43:11.256Z,39.90
2019-03-16T08:45:41.702Z,41.68
2019-03-16T08:48:22.161Z,40.65
2019-03-16T08:50:45.308Z,40.23
2019-03-16T08:53:15.634Z,40.43
2019-03-16T08:55:45.900Z,39.55
2019-03-16T08:58:16.210Z,38.95
2019-03-16T09:00:46.533Z,39.10
2019-03-16T09:03:16.888Z,39.50
2019-03-16T09:05:47.156Z,40.65
2019-03-16T09:08:17.401Z,38.28
2019-03-16T09:10:47.803Z,38.38
2019-03-16T09:13:18.086Z,37.17
2019-03-16T09:15:50.646Z,38.65
2019-03-16T09:18:21.027Z,38.10
2019-03-16T09:20:52.931Z,38.38
2019-03-16T09:23:23.226Z,37.35
2019-03-16T09:25:53.547Z,37.50
2019-03-16T09:28:23.783Z,37.80
2019-03-16T09:30:56.440Z,35.20
2019-03-16T09:33:26.583Z,35.75
2019-03-16T09:35:56.962Z,37.73
2019-03-16T09:38:27.397Z,35.50
2019-03-16T09:40:57.689Z,35.75
2019-03-16T09:43:27.998Z,36.17
2019-03-16T09:45:58.657Z,34.13
2019-03-16T09:48:28.975Z,34.63
2019-03-16T09:50:59.286Z,34.78
2019-03-16T09:53:29.656Z,35.83
2019-03-16T09:56:02.270Z,33.58
2019-03-16T09:58:32.593Z,34.35
2019-03-16T10:01:02.898Z,35.10
2019-03-16T10:03:33.252Z,34.33
2019-03-16T10:06:03.546Z,32.30
2019-03-16T10:08:35.186Z,33.50
2019-03-16T10:11:05.918Z,32.98
2019-03-16T10:13:37.271Z,33.45
2019-03-16T10:16:07.574Z,31.27
2019-03-16T10:18:37.822Z,32.00
2019-03-16T10:21:08.138Z,33.98
2019-03-16T10:23:38.619Z,30.72
2019-03-16T10:26:09.248Z,32.03
2019-03-16T10:28:43.809Z,31.52
2019-03-16T10:31:11.616Z,31.17
2019-03-16T10:33:41.928Z,30.30
2019-03-16T10:36:12.350Z,32.48
2019-03-16T10:38:42.690Z,31.42
2019-03-16T10:41:12.941Z,30.12
2019-03-16T10:43:43.367Z,30.12
2019-03-16T10:46:13.794Z,29.70
2019-03-16T10:48:44.106Z,30.45
2019-03-16T10:51:14.692Z,28.50
2019-03-16T10:53:45.036Z,29.37
2019-03-16T10:56:15.363Z,30.02
2019-03-16T10:58:56.124Z,29.10
2019-03-16T11:01:17.726Z,29.45
2019-03-16T11:03:48.023Z,29.82
2019-03-16T11:06:18.379Z,29.85
2019-03-16T11:08:47.015Z,29.92
2019-03-16T11:11:15.703Z,27.90
2019-03-16T11:13:44.378Z,28.02
2019-03-16T11:16:14.664Z,28.45
2019-03-16T11:18:45.008Z,27.58
2019-03-16T11:21:16.325Z,27.35
2019-03-16T11:23:51.796Z,29.57
2019-03-16T11:26:31.696Z,26.87
2019-03-16T11:29:09.522Z,28.02
2019-03-16T11:31:46.240Z,26.20
2019-03-16T11:34:23.579Z,27.70
2019-03-16T11:36:54.081Z,26.77
2019-03-16T11:39:24.716Z,25.30
2019-03-16T11:41:55.363Z,25.43
2019-03-16T11:44:25.684Z,25.77
2019-03-16T11:46:56.065Z,24.72
2019-03-16T11:49:26.400Z,24.30
2019-03-16T11:51:56.658Z,27.20
2019-03-16T11:54:26.972Z,22.80
2019-03-16T11:56:58.558Z,24.67
2019-03-16T11:59:28.931Z,23.25
2019-03-16T12:02:05.052Z,24.70
2019-03-16T12:04:32.323Z,24.77
2019-03-16T12:07:02.808Z,24.20
2019-03-16T12:09:33.037Z,24.95
2019-03-16T12:12:03.361Z,23.25
2019-03-16T12:14:33.781Z,22.20
2019-03-16T12:17:04.138Z,26.35
2019-03-16T12:19:34.482Z,24.07
2019-03-16T12:22:04.824Z,22.40
2019-03-16T12:24:35.128Z,20.62
2019-03-16T12:27:06.265Z,27.07
2019-03-16T12:29:37.012Z,21.48
2019-03-16T12:32:09.310Z,22.00
2019-03-16T12:34:39.608Z,22.02
2019-03-16T12:37:10.561Z,22.67
2019-03-16T12:39:41.155Z,21.37
2019-03-16T12:42:11.448Z,20.65
2019-03-16T12:44:41.904Z,20.25
2019-03-16T12:47:12.277Z,21.90
2019-03-16T12:49:42.665Z,21.52
2019-03-16T12:52:13.089Z,21.40
2019-03-16T12:54:43.509Z,20.27
2019-03-16T12:57:13.799Z,21.27
2019-03-16T12:59:47.200Z,23.52
2019-03-16T13:02:17.752Z,20.50
2019-03-16T13:04:48.211Z,24.12
2019-03-16T13:07:18.603Z,21.17
2019-03-16T13:09:50.119Z,20.27
2019-03-16T13:12:20.556Z,18.55
2019-03-16T13:14:50.797Z,20.48
2019-03-16T13:17:21.157Z,23.92
2019-03-16T13:19:51.560Z,20.52
2019-03-16T13:22:22.334Z,19.50
2019-03-16T13:25:00.387Z,21.52
2019-03-16T13:27:29.985Z,19.12
2019-03-16T13:30:00.399Z,21.12
2019-03-16T13:32:34.266Z,19.37
2019-03-16T13:35:04.757Z,19.55
2019-03-16T13:37:35.058Z,17.95
2019-03-16T13:40:05.957Z,18.12
2019-03-16T13:42:36.240Z,19.57
2019-03-16T13:45:06.883Z,20.43
2019-03-16T13:47:37.572Z,18.30
2019-03-16T13:50:09.510Z,18.70
2019-03-16T13:52:40.063Z,17.42
2019-03-16T13:55:15.273Z,18.17
2019-03-16T13:57:45.671Z,19.23
2019-03-16T14:00:16.278Z,17.20
2019-03-16T14:02:50.822Z,19.65
2019-03-16T14:05:21.142Z,15.35
2019-03-16T14:07:51.675Z,13.43
2019-03-16T14:10:22.371Z,10.95
2019-03-16T14:12:52.633Z,10.40
2019-03-16T14:15:23.076Z,11.55
2019-03-16T14:17:53.404Z,8.40
2019-03-16T14:20:24.135Z,10.63
2019-03-16T14:22:54.904Z,8.98
2019-03-16T14:25:25.278Z,9.95
2019-03-16T14:27:55.556Z,9.73
2019-03-16T14:30:40.353Z,15.98
2019-03-16T14:32:59.375Z,9.35
2019-03-16T14:35:29.660Z,9.98
2019-03-16T14:38:01.829Z,9.93
2019-03-16T14:40:32.218Z,10.50
2019-03-16T14:43:05.087Z,11.38
2019-03-16T14:45:35.666Z,9.70
2019-03-16T14:48:10.185Z,9.38
2019-03-16T14:50:40.729Z,9.53
2019-03-16T14:53:11.230Z,9.58
2019-03-16T14:55:41.508Z,9.30
2019-03-16T14:58:12.826Z,9.93
2019-03-16T15:00:43.102Z,9.03
2019-03-16T15:03:13.786Z,10.08
2019-03-16T15:05:45.916Z,9.10
2019-03-16T15:08:17.644Z,8.93
2019-03-16T15:10:47.958Z,8.40
2019-03-16T15:13:18.304Z,11.22
2019-03-16T15:15:48.699Z,11.00
2019-03-16T15:18:19.012Z,9.48
2019-03-16T15:20:49.560Z,10.75
2019-03-16T15:23:20.901Z,10.68
2019-03-16T15:25:51.201Z,8.90
2019-03-16T15:28:22.525Z,8.28
2019-03-16T15:30:52.733Z,9.05
2019-03-16T15:33:23.075Z,8.43
2019-03-16T15:35:53.460Z,8.48
2019-03-16T15:38:23.709Z,8.08
2019-03-16T15:40:54.027Z,8.53
2019-03-16T15:43:24.352Z,9.38
2019-03-16T15:45:56.670Z,8.60
2019-03-16T15:48:26.690Z,7.65
2019-03-16T15:50:57.161Z,8.30
2019-03-16T15:53:27.420Z,7.90
2019-03-16T15:55:57.932Z,7.67
2019-03-16T15:58:28.202Z,8.30
2019-03-16T16:01:03.683Z,9.03
2019-03-16T16:03:30.945Z,9.20
2019-03-16T16:06:01.263Z,7.75
2019-03-16T16:08:31.512Z,7.40
2019-03-16T16:11:01.875Z,8.48
2019-03-16T16:13:32.282Z,7.97
2019-03-16T16:16:02.614Z,8.93
2019-03-16T16:18:35.731Z,8.15
2019-03-16T16:21:06.151Z,7.25
2019-03-16T16:23:36.512Z,7.70
2019-03-16T16:26:06.836Z,8.20
2019-03-16T16:28:37.229Z,6.75
2019-03-16T16:31:16.126Z,7.75
2019-03-16T16:33:39.593Z,7.50
2019-03-16T16:36:09.942Z,7.75
2019-03-16T16:38:40.228Z,7.72
2019-03-16T16:41:10.586Z,7.87
2019-03-16T16:43:40.883Z,7.25
2019-03-16T16:46:11.485Z,6.97
2019-03-16T16:48:41.724Z,7.40
2019-03-16T16:51:15.548Z,6.22
2019-03-16T16:53:45.833Z,7.45
2019-03-16T16:56:16.170Z,7.65
2019-03-16T16:58:48.712Z,7.12
2019-03-16T17:01:28.779Z,7.12
2019-03-16T17:03:51.132Z,7.42
2019-03-16T17:06:21.363Z,7.55
2019-03-16T17:08:51.737Z,7.17
2019-03-16T17:11:22.006Z,7.37
2019-03-16T17:13:52.360Z,7.55
2019-03-16T17:16:22.742Z,6.85
2019-03-16T17:18:53.000Z,7.30
2019-03-16T17:21:23.707Z,7.12
2019-03-16T17:23:54.005Z,7.30
2019-03-16T17:26:24.393Z,7.05
2019-03-16T17:28:54.659Z,6.67
2019-03-16T17:31:25.127Z,7.03
2019-03-16T17:33:55.616Z,7.17
2019-03-16T17:36:27.478Z,6.87
2019-03-16T17:38:57.928Z,6.58
2019-03-16T17:41:28.213Z,6.45
2019-03-16T17:43:59.573Z,7.00
2019-03-16T17:46:29.964Z,7.97
2019-03-16T17:49:00.372Z,6.55
2019-03-16T17:51:30.789Z,6.58
2019-03-16T17:54:01.172Z,6.05
2019-03-16T17:56:33.402Z,6.90
2019-03-16T17:59:04.627Z,6.42
2019-03-16T18:01:34.952Z,6.28
2019-03-16T18:04:05.321Z,7.17
2019-03-16T18:06:35.647Z,6.37
2019-03-16T18:09:07.823Z,6.42
2019-03-16T18:11:38.223Z,6.05
2019-03-16T18:14:08.723Z,7.08
2019-03-16T18:16:38.974Z,6.35
2019-03-16T18:19:09.380Z,7.20
2019-03-16T18:21:39.573Z,6.35
2019-03-16T18:24:09.963Z,6.58
2019-03-16T18:26:42.884Z,6.40
2019-03-16T18:29:13.174Z,6.70
2019-03-16T18:31:43.928Z,6.03
2019-03-16T18:34:14.305Z,6.50
2019-03-16T18:36:44.752Z,6.47
2019-03-16T18:39:15.040Z,6.58
2019-03-16T18:41:45.699Z,6.28
2019-03-16T18:44:15.984Z,6.42
2019-03-16T18:46:46.511Z,5.40
2019-03-16T18:49:16.740Z,6.03
2019-03-16T18:51:47.162Z,6.05
2019-03-16T18:54:17.428Z,6.65
2019-03-16T18:56:47.777Z,6.37
2019-03-16T18:59:18.198Z,6.10
2019-03-16T19:01:48.618Z,5.60
2019-03-16T19:04:18.917Z,5.80
2019-03-16T19:06:49.344Z,5.50
2019-03-16T19:09:19.989Z,5.80
2019-03-16T19:11:50.682Z,6.35
2019-03-16T19:14:21.115Z,5.87
2019-03-16T19:16:51.476Z,5.87
2019-03-16T19:19:21.889Z,5.75
2019-03-16T19:21:52.200Z,5.83
2019-03-16T19:24:22.630Z,5.53
2019-03-16T19:26:52.957Z,6.10
2019-03-16T19:29:23.323Z,5.60
2019-03-16T19:31:53.634Z,6.03
2019-03-16T19:34:23.910Z,6.28
2019-03-16T19:36:54.205Z,5.67
2019-03-16T19:39:25.213Z,5.83
2019-03-16T19:41:55.622Z,5.83
2019-03-16T19:44:26.985Z,5.42
2019-03-16T19:46:57.408Z,5.42
2019-03-16T19:49:28.088Z,6.03
2019-03-16T19:51:58.498Z,6.25
2019-03-16T19:54:28.829Z,5.60
2019-03-16T19:56:59.250Z,5.20
2019-03-16T19:59:29.479Z,6.00
2019-03-16T20:01:59.773Z,5.00
2019-03-16T20:04:35.782Z,6.12
2019-03-16T20:07:02.289Z,5.72
2019-03-16T20:09:32.572Z,5.67
2019-03-16T20:12:02.826Z,5.47
2019-03-16T20:14:34.121Z,5.67
2019-03-16T20:17:05.742Z,6.08
2019-03-16T20:19:38.547Z,5.60
2019-03-16T20:22:09.016Z,5.87
2019-03-16T20:24:39.689Z,6.22
2019-03-16T20:27:11.969Z,6.12
2019-03-16T20:29:42.359Z,6.53
2019-03-16T20:32:12.748Z,6.03
2019-03-16T20:34:42.964Z,6.17
2019-03-16T20:37:13.246Z,14.15
2019-03-16T20:39:43.542Z,17.25
2019-03-16T20:42:13.935Z,17.42
2019-03-16T20:44:45.339Z,23.92
2019-03-16T20:47:15.698Z,31.30
2019-03-16T20:49:45.992Z,34.58
2019-03-16T20:52:19.086Z,33.25
2019-03-16T20:54:49.362Z,36.90
2019-03-16T20:57:19.777Z,34.83
2019-03-16T20:59:50.485Z,35.15
2019-03-16T21:02:21.800Z,38.70
2019-03-16T21:04:52.226Z,36.30
2019-03-16T21:07:22.531Z,36.17
2019-03-16T21:09:53.610Z,31.70
2019-03-16T21:12:24.957Z,29.57
2019-03-16T21:14:56.456Z,28.80
2019-03-16T21:17:28.448Z,24.47
2019-03-16T21:20:01.080Z,30.60
2019-03-16T21:22:36.434Z,27.05
2019-03-16T21:25:04.245Z,33.63
2019-03-16T21:27:35.259Z,37.98
2019-03-16T21:30:07.315Z,51.05
2019-03-16T21:32:38.225Z,53.30
2019-03-16T21:35:09.497Z,53.15
2019-03-16T21:37:40.488Z,43.38
2019-03-16T21:40:12.097Z,40.12
2019-03-16T21:42:43.366Z,40.43
2019-03-16T21:45:14.760Z,41.28
2019-03-16T21:47:45.115Z,41.15
2019-03-16T21:50:15.535Z,38.65
2019-03-16T21:52:45.866Z,37.38
2019-03-16T21:55:16.160Z,36.50
2019-03-16T21:57:46.490Z,37.35
2019-03-16T22:00:16.794Z,36.53
2019-03-16T22:02:47.094Z,39.23
2019-03-16T22:05:17.715Z,40.03
2019-03-16T22:07:48.033Z,43.42
2019-03-16T22:10:18.402Z,41.55
2019-03-16T22:12:48.762Z,40.63
2019-03-16T22:15:19.002Z,40.60
2019-03-16T22:17:49.292Z,41.90
2019-03-16T22:20:19.608Z,40.52
2019-03-16T22:22:49.974Z,43.85
2019-03-16T22:25:20.237Z,45.17
2019-03-16T22:27:51.902Z,44.15
2019-03-16T22:30:22.403Z,42.75
2019-03-16T22:32:52.741Z,42.20
2019-03-16T22:35:23.003Z,44.13
2019-03-16T22:37:53.434Z,41.80
2019-03-16T22:40:23.657Z,45.35
2019-03-16T22:42:53.875Z,46.92
2019-03-16T22:45:24.152Z,50.85
2019-03-16T22:47:54.525Z,48.48
2019-03-16T22:50:24.786Z,51.63
2019-03-16T22:52:55.096Z,48.80
2019-03-16T22:55:25.334Z,51.42
2019-03-16T22:57:55.624Z,53.60
2019-03-16T23:00:30.664Z,53.48
2019-03-16T23:03:02.546Z,49.13
2019-03-16T23:05:33.783Z,54.08
2019-03-16T23:08:04.266Z,54.73
2019-03-16T23:10:34.602Z,51.18
2019-03-16T23:13:05.020Z,50.80
2019-03-16T23:15:35.381Z,52.38
2019-03-16T23:18:05.685Z,50.98
2019-03-16T23:20:36.008Z,52.50
2019-03-16T23:23:06.298Z,56.50
2019-03-16T23:25:37.564Z,50.43
2019-03-16T23:28:07.917Z,51.02
2019-03-16T23:30:38.241Z,51.73
2019-03-16T23:33:08.548Z,52.00
2019-03-16T23:35:41.734Z,48.38
2019-03-16T23:38:12.059Z,51.35
2019-03-16T23:40:42.361Z,49.55
2019-03-16T23:43:12.689Z,52.50
2019-03-16T23:45:42.978Z,51.73
2019-03-16T23:48:13.384Z,49.63
2019-03-16T23:50:43.786Z,49.08
2019-03-16T23:53:14.038Z,49.15
2019-03-16T23:55:44.331Z,49.25
2019-03-16T23:58:14.722Z,47.73
